Time;durP1;ratioP1;P1;durP2;ratioP2;P2;SDS_P1;SDS_P2;PMS_P1;PMS_P2;Temp;Humidity;BMP_temperature;BMP_pressure;BME280_temperature;BME280_humidity;BME280_pressure;Samples;Min_cycle;Max_cycle;Signal;HPM_P1;HPM_P2
2024/04/19 00:00:01;;;;;;;2.10;0.70;;;;;;;4.81;100.00;97920.60;106639;1256;61199;-78
2024/04/19 00:02:38;;;;;;;1.50;0.50;;;;;;;4.77;100.00;97922.58;105816;1254;74656;-77
2024/04/19 00:05:08;;;;;;;0.60;0.60;;;;;;;4.78;100.00;97928.29;105804;1254;67739;-76
2024/04/19 00:07:36;;;;;;;0.60;0.60;;;;;;;4.79;100.00;97935.06;106190;1259;72463;-76
2024/04/19 00:10:04;;;;;;;0.50;0.50;;;;;;;4.78;100.00;97931.05;106679;1257;61642;-74
2024/04/19 00:12:32;;;;;;;0.40;0.40;;;;;;;4.78;100.00;97935.98;107649;1254;61280;-76
2024/04/19 00:14:59;;;;;;;0.50;0.50;;;;;;;4.79;100.00;97935.76;106714;1254;74716;-73
2024/04/19 00:17:27;;;;;;;0.40;0.40;;;;;;;4.80;100.00;97933.99;106855;1257;69007;-75
2024/04/19 00:19:54;;;;;;;0.50;0.50;;;;;;;4.80;100.00;97937.31;106498;1257;71395;-77
2024/04/19 00:22:21;;;;;;;0.90;0.50;;;;;;;4.77;100.00;97937.30;105921;1260;61714;-75
2024/04/19 00:24:49;;;;;;;0.70;0.40;;;;;;;4.76;100.00;97936.10;106066;1256;61196;-75
2024/04/19 00:27:16;;;;;;;0.40;0.40;;;;;;;4.73;100.00;97935.16;106113;1253;73983;-77
2024/04/19 00:29:44;;;;;;;0.60;0.50;;;;;;;4.73;100.00;97940.39;106021;1260;68726;-74
2024/04/19 00:32:11;;;;;;;0.80;0.60;;;;;;;4.70;100.00;97947.21;105972;1253;71459;-76
2024/04/19 00:34:39;;;;;;;0.80;0.70;;;;;;;4.70;100.00;97946.52;105832;1253;62578;-77
2024/04/19 00:37:06;;;;;;;0.70;0.50;;;;;;;4.70;100.00;97949.89;106132;1255;61276;-78
2024/04/19 00:39:33;;;;;;;1.50;0.50;;;;;;;4.69;100.00;97950.81;105947;1256;73414;-77
2024/04/19 00:42:01;;;;;;;0.50;0.50;;;;;;;4.70;100.00;97949.03;105880;1254;69717;-79
2024/04/19 00:44:30;;;;;;;0.50;0.50;;;;;;;4.64;100.00;97950.76;105948;1257;73417;-75
2024/04/19 00:47:01;;;;;;;0.40;0.40;;;;;;;4.60;100.00;97952.33;106124;1259;61234;-77
2024/04/19 00:49:29;;;;;;;0.50;0.50;;;;;;;4.60;100.00;97949.85;106426;1254;61261;-75
2024/04/19 00:51:57;;;;;;;1.40;0.50;;;;;;;4.61;100.00;97953.18;106352;1256;74669;-76
2024/04/19 00:54:24;;;;;;;0.50;0.50;;;;;;;4.63;100.00;97951.53;105955;1256;70615;-77
2024/04/19 00:56:51;;;;;;;0.50;0.50;;;;;;;4.65;100.00;97951.20;105797;1253;72511;-77
2024/04/19 00:59:19;;;;;;;0.90;0.40;;;;;;;4.62;100.00;97953.79;106093;1254;61218;-75
2024/04/19 01:01:46;;;;;;;1.80;0.50;;;;;;;4.63;100.00;97953.84;106888;1253;61171;-75
2024/04/19 01:04:13;;;;;;;1.10;0.50;;;;;;;4.66;100.00;97959.40;107442;1255;73395;-76
2024/04/19 01:06:41;;;;;;;0.40;0.40;;;;;;;4.70;100.00;97957.23;107184;1254;68046;-74
2024/04/19 01:09:08;;;;;;;0.60;0.60;;;;;;;4.72;100.00;97956.24;106697;1257;71896;-75
2024/04/19 01:11:36;;;;;;;0.40;0.40;;;;;;;4.73;100.00;97955.66;106627;1259;61659;-76
2024/04/19 01:14:03;;;;;;;0.40;0.40;;;;;;;4.72;100.00;97957.33;105957;1254;61337;-75
2024/04/19 01:16:30;;;;;;;0.50;0.50;;;;;;;4.75;100.00;97959.91;106322;1257;73805;-75
2024/04/19 01:18:58;;;;;;;1.00;0.70;;;;;;;4.76;100.00;97961.84;106458;1257;70134;-76
2024/04/19 01:21:26;;;;;;;0.50;0.50;;;;;;;4.76;100.00;97962.14;106103;1262;70617;-75
2024/04/19 01:24:00;;;;;;;0.40;0.40;;;;;;;4.75;100.00;97968.78;106063;1253;61294;-75
2024/04/19 01:26:27;;;;;;;0.80;0.70;;;;;;;4.77;100.00;97968.09;106172;1254;61244;-76
2024/04/19 01:28:54;;;;;;;0.60;0.60;;;;;;;4.74;100.00;97966.91;106562;1253;74816;-77
2024/04/19 01:31:22;;;;;;;0.80;0.70;;;;;;;4.74;100.00;97971.73;106606;1253;69912;-77
2024/04/19 01:33:49;;;;;;;0.60;0.60;;;;;;;4.74;100.00;97975.37;106777;1253;71464;-79
2024/04/19 01:36:16;;;;;;;0.80;0.80;;;;;;;4.75;100.00;97970.36;106052;1259;61274;-78
2024/04/19 01:38:46;;;;;;;0.50;0.50;;;;;;;4.77;100.00;97976.52;106155;1254;61285;-77
2024/04/19 01:41:14;;;;;;;0.70;0.70;;;;;;;4.75;100.00;97978.98;106402;1256;74714;-78
2024/04/19 01:43:44;;;;;;;0.60;0.60;;;;;;;4.75;100.00;97983.65;106533;1254;70030;-77
2024/04/19 01:46:11;;;;;;;0.60;0.60;;;;;;;4.79;100.00;97978.17;106444;1254;71706;-76
2024/04/19 01:48:39;;;;;;;0.70;0.70;;;;;;;4.81;100.00;97975.85;106363;1259;61302;-76
2024/04/19 01:51:06;;;;;;;0.60;0.60;;;;;;;4.82;100.00;97976.70;106318;1254;61212;-76
2024/04/19 01:53:34;;;;;;;0.70;0.70;;;;;;;4.85;100.00;97978.21;106914;1253;74878;-75
2024/04/19 01:56:01;;;;;;;0.60;0.60;;;;;;;4.86;100.00;97978.77;108191;1253;69003;-76
2024/04/19 01:58:40;;;;;;;1.70;1.20;;;;;;;4.88;100.00;97978.90;107536;1253;71211;-78
2024/04/19 02:01:08;;;;;;;0.80;0.70;;;;;;;4.90;100.00;97978.59;106465;1255;61328;-78
2024/04/19 02:03:39;;;;;;;1.40;0.80;;;;;;;4.94;100.00;97976.14;106321;1256;61173;-78
2024/04/19 02:06:12;;;;;;;0.80;0.70;;;;;;;4.96;100.00;97978.52;106152;1255;73605;-78
2024/04/19 02:08:39;;;;;;;1.00;0.90;;;;;;;4.97;100.00;97981.58;106190;1257;68702;-78
2024/04/19 02:11:07;;;;;;;0.90;0.80;;;;;;;4.98;100.00;97987.55;106273;1254;71751;-79
2024/04/19 02:13:34;;;;;;;1.00;0.90;;;;;;;5.02;100.00;97987.16;106354;1257;61844;-76
2024/04/19 02:16:01;;;;;;;1.00;0.90;;;;;;;5.03;100.00;97990.51;106843;1259;60087;-78
2024/04/19 02:18:29;;;;;;;0.80;0.80;;;;;;;5.02;100.00;97992.00;107321;1253;73381;-79
2024/04/19 02:20:57;;;;;;;1.50;0.90;;;;;;;5.02;100.00;97995.31;107901;1253;69000;-75
2024/04/19 02:23:37;;;;;;;0.80;0.80;;;;;;;5.02;100.00;97995.06;106392;1261;70708;-79
2024/04/19 02:26:05;;;;;;;0.90;0.80;;;;;;;5.02;100.00;97999.11;106156;1254;61093;-77
2024/04/19 02:31:19;;;;;;;1.00;0.80;;;;;;;5.07;100.00;98001.34;106188;1259;74642;-76
2024/04/19 02:33:47;;;;;;;3.60;2.60;;;;;;;5.05;100.00;98007.96;106781;1256;69960;-78
2024/04/19 02:36:15;;;;;;;4.00;2.40;;;;;;;5.05;100.00;98011.67;106682;1254;71654;-78
2024/04/19 02:38:42;;;;;;;1.70;1.30;;;;;;;5.05;100.00;98014.67;106487;1253;61772;-74
2024/04/19 02:41:09;;;;;;;1.30;1.20;;;;;;;5.05;100.00;98019.94;106315;1255;61235;-75
2024/04/19 02:43:37;;;;;;;1.00;0.90;;;;;;;5.09;100.00;98023.20;106493;1253;74655;-75
2024/04/19 02:46:05;;;;;;;1.10;1.00;;;;;;;5.11;100.00;98024.14;106672;1253;70338;-76
2024/04/19 02:48:33;;;;;;;1.80;1.40;;;;;;;5.12;100.00;98024.70;107594;1254;71516;-74
2024/04/19 02:51:03;;;;;;;1.20;1.00;;;;;;;5.15;100.00;98024.27;107384;1253;61676;-77
2024/04/19 02:53:32;;;;;;;1.00;0.90;;;;;;;5.17;100.00;98025.58;107679;1253;61417;-76
2024/04/19 02:56:00;;;;;;;1.50;1.40;;;;;;;5.21;100.00;98026.86;107342;1256;74704;-76
2024/04/19 02:58:28;;;;;;;2.00;1.60;;;;;;;5.23;100.00;98031.70;107395;1253;69650;-75
2024/04/19 03:00:55;;;;;;;1.90;1.40;;;;;;;5.24;100.00;98035.35;106580;1254;71459;-74
2024/04/19 03:03:23;;;;;;;3.00;1.60;;;;;;;5.24;100.00;98044.05;106680;1254;61317;-77
2024/04/19 03:05:54;;;;;;;2.00;1.70;;;;;;;5.25;100.00;98042.21;106633;1259;61212;-78
2024/04/19 03:08:22;;;;;;;7.10;4.30;;;;;;;5.27;100.00;98048.18;107033;1254;73372;-77
2024/04/19 03:10:49;;;;;;;1.90;1.70;;;;;;;5.28;100.00;98047.69;106933;1253;70574;-77
2024/04/19 03:13:16;;;;;;;2.30;1.50;;;;;;;5.31;100.00;98050.17;107175;1253;71695;-77
2024/04/19 03:15:44;;;;;;;1.60;1.50;;;;;;;5.35;100.00;98054.58;107059;1257;61235;-77
2024/04/19 03:18:30;;;;;;;3.20;1.90;;;;;;;5.40;100.00;98058.06;106872;1254;61427;-76
2024/04/19 03:21:01;;;;;;;2.10;1.70;;;;;;;5.43;100.00;98059.53;107089;1253;73195;-75
2024/04/19 03:23:29;;;;;;;2.40;1.80;;;;;;;5.45;100.00;98061.59;108089;1253;68070;-79
2024/04/19 03:25:57;;;;;;;4.50;2.00;;;;;;;5.47;100.00;98065.71;107500;1253;73562;-74
2024/04/19 03:28:24;;;;;;;1.90;1.70;;;;;;;5.50;100.00;98067.63;107397;1253;59868;-75
2024/04/19 03:30:51;;;;;;;2.50;1.80;;;;;;;5.51;100.00;98075.73;107549;1256;58846;-76
2024/04/19 03:33:18;;;;;;;3.60;1.80;;;;;;;5.53;100.00;98074.13;107888;1253;73421;-77
2024/04/19 03:35:46;;;;;;;5.10;2.90;;;;;;;5.55;100.00;98075.52;108177;1253;69090;-79
2024/04/19 03:38:14;;;;;;;5.50;2.70;;;;;;;5.55;100.00;98080.08;108451;1254;71626;-78
2024/04/19 03:40:54;;;;;;;2.90;2.20;;;;;;;5.56;100.00;98079.11;108211;1256;62985;-74
2024/04/19 03:43:23;;;;;;;2.90;2.60;;;;;;;5.56;100.00;98080.63;108181;1254;59027;-73
2024/04/19 03:45:52;;;;;;;2.30;1.90;;;;;;;5.59;100.00;98083.23;108067;1253;73652;-75
2024/04/19 03:48:19;;;;;;;3.40;2.60;;;;;;;5.61;100.00;98083.63;108243;1256;70271;-79
2024/04/19 03:50:47;;;;;;;6.20;3.10;;;;;;;5.64;100.00;98088.47;107947;1253;71635;-77
2024/04/19 03:53:14;;;;;;;3.10;2.40;;;;;;;5.62;100.00;98093.78;108090;1254;61155;-77
2024/04/19 03:55:42;;;;;;;4.30;2.80;;;;;;;5.63;100.00;98095.17;107381;1253;61344;-77
2024/04/19 03:58:09;;;;;;;3.10;2.80;;;;;;;5.63;100.00;98107.09;107046;1253;74569;-76
2024/04/19 04:00:39;;;;;;;3.10;2.40;;;;;;;5.62;100.00;98114.89;107425;1253;69133;-77
2024/04/19 04:03:07;;;;;;;3.20;2.80;;;;;;;5.63;100.00;98125.48;107396;1253;72599;-75
2024/04/19 04:05:39;;;;;;;3.00;2.60;;;;;;;5.65;100.00;98129.62;107145;1256;61169;-77
2024/04/19 04:08:07;;;;;;;2.90;2.40;;;;;;;5.68;100.00;98133.02;107103;1253;61025;-77
2024/04/19 04:10:35;;;;;;;3.30;2.60;;;;;;;5.69;100.00;98138.82;106722;1254;74711;-74
2024/04/19 04:13:03;;;;;;;4.40;2.50;;;;;;;5.71;100.00;98145.26;106896;1258;69075;-76
2024/04/19 04:15:31;;;;;;;3.70;2.90;;;;;;;5.70;100.00;98146.84;106993;1259;71442;-76
2024/04/19 04:18:01;;;;;;;3.40;2.60;;;;;;;5.70;100.00;98141.86;107289;1257;61215;-76
2024/04/19 04:20:31;;;;;;;4.30;2.20;;;;;;;5.71;100.00;98148.41;107622;1256;61161;-77
2024/04/19 04:22:59;;;;;;;4.20;3.00;;;;;;;5.70;100.00;98151.75;107174;1255;73395;-77
2024/04/19 04:25:27;;;;;;;3.70;3.30;;;;;;;5.69;100.00;98150.31;107441;1253;69872;-78
2024/04/19 04:27:54;;;;;;;4.00;2.90;;;;;;;5.68;100.00;98152.33;107287;1253;71443;-76
2024/04/19 04:30:22;;;;;;;3.90;3.40;;;;;;;5.68;100.00;98154.83;107151;1254;61673;-77
2024/04/19 04:32:49;;;;;;;4.40;3.20;;;;;;;5.65;100.00;98162.82;108099;1254;61337;-77
2024/04/19 04:35:17;;;;;;;3.60;3.10;;;;;;;5.65;100.00;98172.21;108428;1254;73491;-78
2024/04/19 04:37:44;;;;;;;4.80;3.40;;;;;;;5.67;100.00;98172.48;108012;1253;69023;-77
2024/04/19 04:40:11;;;;;;;4.60;3.80;;;;;;;5.70;100.00;98185.04;108776;1253;71479;-77
2024/04/19 04:42:39;;;;;;;3.50;3.00;;;;;;;5.74;100.00;98189.41;107695;1254;61254;-77
2024/04/19 04:45:06;;;;;;;4.20;3.40;;;;;;;5.78;100.00;98194.28;106824;1254;61413;-74
2024/04/19 04:47:34;;;;;;;3.60;3.30;;;;;;;5.82;100.00;98202.92;106601;1259;73582;-75
2024/04/19 04:50:01;;;;;;;4.20;3.60;;;;;;;5.87;100.00;98192.44;107022;1256;68997;-76
2024/04/19 04:52:29;;;;;;;5.40;3.70;;;;;;;5.93;100.00;98195.18;107063;1254;71499;-77
2024/04/19 04:54:56;;;;;;;4.20;3.20;;;;;;;6.01;100.00;98199.76;107263;1254;61663;-78
2024/04/19 04:57:24;;;;;;;6.80;3.80;;;;;;;6.08;99.89;98202.63;107117;1253;61271;-80
2024/04/19 04:59:51;;;;;;;4.40;3.60;;;;;;;6.14;99.77;98211.45;107164;1254;75566;-79
2024/04/19 05:02:18;;;;;;;5.30;4.70;;;;;;;6.22;99.74;98206.64;107410;1256;68784;-77
2024/04/19 05:04:46;;;;;;;5.60;4.00;;;;;;;6.27;99.45;98212.66;107235;1253;75042;-79
2024/04/19 05:07:13;;;;;;;4.90;4.40;;;;;;;6.34;99.57;98218.08;107740;1255;62168;-79
2024/04/19 05:09:40;;;;;;;5.90;4.40;;;;;;;6.38;98.95;98223.81;107705;1256;61349;-77
2024/04/19 05:12:08;;;;;;;4.70;3.80;;;;;;;6.40;99.01;98222.08;107345;1254;72596;-78
2024/04/19 05:14:36;;;;;;;4.70;3.90;;;;;;;6.40;98.04;98227.95;106813;1260;69908;-78
2024/04/19 05:17:03;;;;;;;5.00;4.20;;;;;;;6.41;97.78;98235.89;107342;1254;72808;-76
2024/04/19 05:19:30;;;;;;;4.70;4.00;;;;;;;6.41;97.70;98241.66;107082;1257;61103;-78
2024/04/19 05:21:58;;;;;;;5.60;4.30;;;;;;;6.40;98.15;98245.98;107157;1253;59904;-79
2024/04/19 05:24:26;;;;;;;6.10;5.00;;;;;;;6.37;98.22;98242.05;108497;1253;73374;-78
2024/04/19 05:26:56;;;;;;;5.50;4.90;;;;;;;6.35;98.72;98247.50;108631;1253;68900;-77
2024/04/19 05:29:25;;;;;;;7.60;4.70;;;;;;;6.34;98.61;98249.89;107962;1254;71753;-77
2024/04/19 05:31:53;;;;;;;5.40;4.90;;;;;;;6.33;98.97;98259.52;107480;1258;60752;-73
2024/04/19 05:34:20;;;;;;;7.00;4.60;;;;;;;6.32;98.91;98272.09;106614;1253;61234;-76
2024/04/19 05:36:48;;;;;;;4.50;4.10;;;;;;;6.31;99.55;98279.05;106137;1253;74907;-74
2024/04/19 05:39:16;;;;;;;4.10;3.70;;;;;;;6.30;99.07;98283.74;106377;1253;68791;-75
2024/04/19 05:41:43;;;;;;;7.10;4.50;;;;;;;6.28;98.92;98291.38;106557;1254;72695;-75
2024/04/19 05:44:10;;;;;;;4.80;4.30;;;;;;;6.24;99.44;98291.88;106372;1262;61681;-77
2024/04/19 05:46:38;;;;;;;6.00;4.00;;;;;;;6.22;99.02;98299.66;106800;1256;61302;-77
2024/04/19 05:49:05;;;;;;;5.60;4.40;;;;;;;6.18;97.86;98303.71;107133;1253;76241;-74
2024/04/19 05:51:33;;;;;;;4.80;4.30;;;;;;;6.16;98.17;98309.42;107384;1253;69275;-75
2024/04/19 05:54:00;;;;;;;4.90;4.30;;;;;;;6.16;98.86;98307.67;106620;1254;322926;-77
2024/04/19 05:58:15;;;;;;;5.00;3.90;;;;;;;6.26;99.71;98314.83;104333;1294;600116;-80
2024/04/19 06:00:43;;;;;;;5.20;4.30;;;;;;;6.33;99.74;98313.70;106308;1269;61672;-81
2024/04/19 06:03:10;;;;;;;4.90;4.30;;;;;;;6.45;99.78;98316.29;106459;1266;61987;-82
2024/04/19 06:05:38;;;;;;;4.60;3.60;;;;;;;6.55;99.36;98325.21;106402;1270;74015;-80
2024/04/19 06:08:07;;;;;;;5.30;3.90;;;;;;;6.61;96.89;98330.30;106981;1269;71486;-81
2024/04/19 06:10:35;;;;;;;6.10;4.50;;;;;;;6.68;96.11;98334.08;107004;1269;71600;-81
2024/04/19 06:13:03;;;;;;;5.80;4.40;;;;;;;6.75;97.13;98338.70;106627;1269;183616;-82
2024/04/19 06:15:30;;;;;;;4.70;3.80;;;;;;;6.81;94.55;98343.52;108100;1256;62514;-81
2024/04/19 06:17:57;;;;;;;5.50;4.20;;;;;;;6.90;94.74;98346.69;108900;1254;73898;-80
2024/04/19 06:20:25;;;;;;;5.30;4.40;;;;;;;6.99;93.96;98354.91;108885;1256;71760;-81
2024/04/19 06:22:53;;;;;;;5.70;3.60;;;;;;;7.08;94.53;98357.42;108775;1255;73633;-80
2024/04/19 06:25:21;;;;;;;4.70;4.10;;;;;;;7.16;94.06;98369.36;108353;1255;62704;-81
2024/04/19 06:27:48;;;;;;;4.30;3.50;;;;;;;7.21;92.92;98366.44;108469;1254;60435;-80
2024/04/19 06:30:16;;;;;;;4.50;4.00;;;;;;;7.24;92.46;98373.67;108406;1256;73878;-80
2024/04/19 06:32:43;;;;;;;5.70;4.00;;;;;;;7.26;91.44;98379.55;108143;1254;72481;-82
2024/04/19 06:35:15;;;;;;;4.30;3.10;;;;;;;7.27;90.33;98380.05;108397;1255;71494;-78
2024/04/19 06:37:43;;;;;;;3.50;3.20;;;;;;;7.25;90.73;98389.94;108235;1256;60517;-78
2024/04/19 06:40:11;;;;;;;5.20;3.70;;;;;;;7.26;90.46;98393.02;108098;1259;59169;-81
2024/04/19 06:42:39;;;;;;;4.70;3.70;;;;;;;7.25;89.74;98398.73;108484;1256;72009;-83
2024/04/19 06:45:06;;;;;;;3.80;3.50;;;;;;;7.22;88.48;98404.61;108401;1254;70123;-79
2024/04/19 06:47:34;;;;;;;3.30;3.00;;;;;;;7.19;88.82;98407.89;108862;1257;72772;-82
2024/04/19 06:50:01;;;;;;;5.40;3.40;;;;;;;7.15;88.32;98415.11;108605;1254;60786;-82
2024/04/19 06:52:29;;;;;;;4.40;3.70;;;;;;;7.11;89.13;98421.23;108467;1256;60303;-81
2024/04/19 06:54:56;;;;;;;4.30;3.30;;;;;;;7.09;88.00;98422.98;108667;1254;73403;-80
2024/04/19 06:57:23;;;;;;;4.20;3.50;;;;;;;7.13;89.62;98429.70;108990;1255;70158;-81
2024/04/19 06:59:51;;;;;;;8.00;3.20;;;;;;;7.14;88.15;98435.96;109057;1255;72980;-82
2024/04/19 07:02:34;;;;;;;4.30;3.80;;;;;;;7.20;89.09;98440.70;108854;1259;62795;-82
2024/04/19 07:05:02;;;;;;;5.80;3.50;;;;;;;7.27;89.82;98437.31;109039;1255;61019;-81
2024/04/19 07:07:30;;;;;;;3.70;3.30;;;;;;;7.33;88.81;98445.91;108814;1256;74965;-81
2024/04/19 07:09:57;;;;;;;4.10;3.30;;;;;;;7.38;88.07;98451.84;108838;1255;70627;-82
2024/04/19 07:12:28;;;;;;;18.50;5.00;;;;;;;7.39;88.17;98462.01;108700;1254;73798;-82
2024/04/19 07:14:55;;;;;;;3.80;3.40;;;;;;;7.36;87.58;98457.77;109273;1254;61046;-84
2024/04/19 07:17:22;;;;;;;3.90;3.50;;;;;;;7.34;88.00;98466.28;109014;1257;61068;-81
2024/04/19 07:19:50;;;;;;;4.00;3.30;;;;;;;7.36;87.00;98473.27;108786;1254;72434;-81
2024/04/19 07:22:18;;;;;;;6.50;3.20;;;;;;;7.38;87.59;98476.18;109140;1254;71023;-80
2024/04/19 07:24:45;;;;;;;5.10;3.80;;;;;;;7.39;87.26;98483.08;109047;1255;73831;-82
2024/04/19 07:27:14;;;;;;;5.10;3.20;;;;;;;7.37;86.66;98487.61;108673;1256;62505;-81
2024/04/19 07:29:42;;;;;;;4.60;3.30;;;;;;;7.26;84.13;98493.77;108716;1256;60873;-84
2024/04/19 07:32:09;;;;;;;5.30;3.50;;;;;;;7.13;85.10;98497.23;107942;1256;75864;-76
2024/04/19 07:34:37;;;;;;;5.00;3.80;;;;;;;7.06;86.01;98507.83;108101;1254;70587;-80
2024/04/19 07:37:04;;;;;;;4.80;3.30;;;;;;;7.04;87.27;98499.23;107446;1259;73792;-76
2024/04/19 07:39:32;;;;;;;5.20;3.60;;;;;;;7.02;86.75;98507.65;107193;1256;60812;-79
2024/04/19 07:42:00;;;;;;;3.70;3.10;;;;;;;6.96;86.37;98507.40;108233;1254;59253;-78
2024/04/19 07:44:27;;;;;;;6.10;3.40;;;;;;;6.92;86.88;98520.70;108471;1255;73751;-78
2024/04/19 07:46:55;;;;;;;5.00;3.50;;;;;;;6.94;87.40;98524.23;107987;1254;69220;-78
2024/04/19 07:49:25;;;;;;;5.90;3.60;;;;;;;6.96;87.85;98527.66;107919;1255;74788;-78
2024/04/19 07:51:53;;;;;;;5.00;3.60;;;;;;;6.99;87.62;98528.24;108655;1256;62485;-79
2024/04/19 07:54:21;;;;;;;6.10;3.80;;;;;;;6.99;87.51;98529.39;108506;1261;61000;-79
2024/04/19 07:56:49;;;;;;;4.30;3.40;;;;;;;7.07;89.17;98536.24;108234;1256;74771;-79
2024/04/19 07:59:16;;;;;;;4.40;3.50;;;;;;;7.17;87.45;98541.10;108526;1254;71032;-78
2024/04/19 08:01:44;;;;;;;6.80;3.50;;;;;;;7.27;87.58;98544.56;108293;1254;71923;-79
2024/04/19 08:04:11;;;;;;;4.90;3.30;;;;;;;7.41;87.62;98544.53;108311;1254;63846;-79
2024/04/19 08:06:39;;;;;;;5.10;4.50;;;;;;;7.54;85.59;98553.48;108708;1256;59152;-80
2024/04/19 08:09:07;;;;;;;4.20;3.40;;;;;;;7.62;85.74;98557.23;108916;1256;74868;-77
2024/04/19 08:11:35;;;;;;;5.40;3.30;;;;;;;7.63;84.62;98559.37;108810;1254;70529;-80
2024/04/19 08:14:03;;;;;;;6.20;3.80;;;;;;;7.65;85.19;98562.54;108895;1255;72368;-78
2024/04/19 08:16:30;;;;;;;4.80;4.10;;;;;;;7.65;85.37;98574.14;108587;1256;58939;-76
2024/04/19 08:18:58;;;;;;;3.30;3.00;;;;;;;7.62;84.25;98573.50;108319;1256;60393;-79
2024/04/19 08:21:26;;;;;;;4.10;3.70;;;;;;;7.58;81.55;98591.24;108206;1257;74799;-79
2024/04/19 08:23:53;;;;;;;4.60;3.50;;;;;;;7.57;82.22;98585.37;108343;1254;70988;-79
2024/04/19 08:26:21;;;;;;;4.30;3.10;;;;;;;7.63;82.10;98586.22;108769;1255;73254;-80
2024/04/19 08:28:48;;;;;;;4.60;3.20;;;;;;;7.75;82.49;98587.63;108907;1256;60480;-80
2024/04/19 08:31:19;;;;;;;3.90;3.00;;;;;;;7.83;82.38;98586.30;109054;1255;61010;-80
2024/04/19 08:33:46;;;;;;;3.20;2.60;;;;;;;7.93;81.73;98592.95;108605;1254;74787;-78
2024/04/19 08:36:14;;;;;;;4.20;2.70;;;;;;;7.97;81.41;98594.77;108951;1256;70863;-79
2024/04/19 08:38:41;;;;;;;3.60;2.60;;;;;;;7.97;80.63;98601.52;108809;1255;71371;-79
2024/04/19 08:41:09;;;;;;;4.20;3.50;;;;;;;7.97;80.06;98608.13;108897;1255;60987;-80
2024/04/19 08:43:36;;;;;;;3.30;2.20;;;;;;;7.93;79.73;98610.98;108537;1255;59031;-81
2024/04/19 08:46:04;;;;;;;2.20;2.00;;;;;;;7.89;77.11;98617.39;108659;1262;74696;-79
2024/04/19 08:48:32;;;;;;;2.10;1.90;;;;;;;7.92;78.26;98617.04;108775;1254;68507;-79
2024/04/19 08:51:01;;;;;;;3.40;2.20;;;;;;;8.00;80.32;98617.83;108822;1255;70915;-79
2024/04/19 08:53:29;;;;;;;3.10;2.00;;;;;;;8.23;79.71;98625.09;108668;1255;60535;-81
2024/04/19 08:55:57;;;;;;;4.00;2.40;;;;;;;8.41;77.11;98627.55;108643;1256;59172;-78
2024/04/19 08:58:25;;;;;;;4.00;2.30;;;;;;;8.41;75.86;98633.04;108783;1255;73775;-82
2024/04/19 09:00:52;;;;;;;3.90;2.80;;;;;;;8.34;76.77;98629.64;108739;1254;71024;-79
2024/04/19 09:03:20;;;;;;;4.40;2.90;;;;;;;8.36;76.20;98637.52;108638;1260;71604;-79
2024/04/19 09:05:48;;;;;;;2.80;2.50;;;;;;;8.33;75.75;98645.67;108553;1257;60726;-77
2024/04/19 09:08:16;;;;;;;4.70;3.00;;;;;;;8.23;77.12;98647.84;109241;1254;59263;-80
2024/04/19 09:10:43;;;;;;;2.80;2.60;;;;;;;8.21;76.99;98651.73;109190;1254;72872;-80
2024/04/19 09:13:11;;;;;;;7.30;6.60;;;;;;;8.26;77.24;98660.15;108946;1254;68952;-76
2024/04/19 09:15:40;;;;;;;5.30;4.80;;;;;;;8.31;77.17;98655.93;109227;1254;73507;-80
2024/04/19 09:18:08;;;;;;;4.50;2.30;;;;;;;8.29;75.81;98668.45;109108;1255;61054;-79
2024/04/19 09:20:35;;;;;;;2.60;2.30;;;;;;;8.20;75.04;98661.59;109241;1256;59527;-80
2024/04/19 09:23:03;;;;;;;3.80;2.70;;;;;;;8.18;75.62;98665.64;109245;1256;75000;-78
2024/04/19 09:25:31;;;;;;;3.40;2.50;;;;;;;8.32;74.79;98672.40;109015;1254;69563;-80
2024/04/19 09:27:58;;;;;;;5.20;2.80;;;;;;;8.39;74.67;98672.64;108960;1254;71955;-79
2024/04/19 09:30:26;;;;;;;4.50;2.70;;;;;;;8.39;73.75;98677.08;108840;1256;60743;-79
2024/04/19 09:32:54;;;;;;;4.40;2.60;;;;;;;8.43;73.39;98672.19;108908;1256;58941;-78
2024/04/19 09:35:27;;;;;;;3.00;2.20;;;;;;;8.52;73.78;98674.20;108916;1254;74640;-80
2024/04/19 09:37:55;;;;;;;2.50;2.30;;;;;;;8.56;73.70;98677.98;109067;1254;71162;-80
2024/04/19 09:40:23;;;;;;;4.40;2.30;;;;;;;8.55;73.03;98685.05;109184;1256;71055;-81
2024/04/19 09:42:52;;;;;;;2.20;1.90;;;;;;;8.61;72.43;98696.20;109028;1255;60577;-80
2024/04/19 09:45:20;;;;;;;3.70;2.30;;;;;;;8.64;71.59;98706.04;109124;1254;61456;-80
2024/04/19 09:47:52;;;;;;;2.00;1.80;;;;;;;8.58;71.83;98709.81;109082;1256;72943;-80
2024/04/19 09:50:20;;;;;;;3.00;2.40;;;;;;;8.57;71.52;98713.49;109261;1256;71144;-81
2024/04/19 09:52:47;;;;;;;3.40;2.10;;;;;;;8.62;70.99;98717.25;108841;1256;73363;-80
2024/04/19 09:55:22;;;;;;;2.30;1.80;;;;;;;8.62;70.07;98710.03;108945;1255;61109;-79
2024/04/19 09:57:49;;;;;;;3.90;2.10;;;;;;;8.58;70.38;98722.80;108815;1256;61171;-78
2024/04/19 10:00:17;;;;;;;3.70;2.10;;;;;;;8.57;68.76;98728.77;108615;1255;74860;-80
2024/04/19 10:02:45;;;;;;;4.10;2.50;;;;;;;8.50;67.99;98749.36;109036;1254;70799;-80
2024/04/19 10:05:13;;;;;;;2.80;2.40;;;;;;;8.32;67.99;98744.27;109295;1253;72785;-79
2024/04/19 10:07:40;;;;;;;2.50;2.20;;;;;;;8.12;67.80;98754.91;109081;1254;60958;-81
2024/04/19 10:10:08;;;;;;;3.00;2.60;;;;;;;7.99;69.35;98754.43;108965;1256;60967;-79
2024/04/19 10:12:35;;;;;;;3.30;1.90;;;;;;;8.01;69.48;98762.50;108955;1259;75510;-79
2024/04/19 10:15:12;;;;;;;2.60;2.20;;;;;;;8.10;69.39;98757.97;109166;1256;70764;-78
2024/04/19 10:17:40;;;;;;;4.70;2.70;;;;;;;8.18;69.65;98775.53;108977;1255;73317;-79
2024/04/19 10:20:10;;;;;;;5.10;3.00;;;;;;;8.22;69.38;98765.19;108718;1254;62137;-81
2024/04/19 10:22:40;;;;;;;3.70;3.20;;;;;;;8.15;68.87;98774.86;108747;1255;61391;-78
2024/04/19 10:25:07;;;;;;;4.10;2.70;;;;;;;8.01;68.49;98792.45;108733;1256;73791;-80
2024/04/19 10:27:35;;;;;;;4.20;3.00;;;;;;;7.96;69.33;98779.48;109055;1254;71586;-81
2024/04/19 10:30:06;;;;;;;3.60;2.60;;;;;;;8.01;69.71;98788.98;108977;1254;73700;-80
2024/04/19 10:32:42;;;;;;;4.30;2.80;;;;;;;8.14;69.10;98785.45;109234;1256;61143;-80
2024/04/19 10:35:11;;;;;;;6.00;2.40;;;;;;;8.19;68.15;98784.17;108917;1255;62585;-79
2024/04/19 10:37:41;;;;;;;2.40;2.20;;;;;;;8.35;66.05;98790.11;108998;1254;75834;-80
2024/04/19 10:40:14;;;;;;;2.70;1.90;;;;;;;8.46;66.86;98787.89;109002;1255;70748;-82
2024/04/19 10:42:42;;;;;;;3.40;2.10;;;;;;;8.73;66.40;98788.17;108920;1256;74749;-81
2024/04/19 10:45:15;;;;;;;2.70;2.20;;;;;;;9.07;65.41;98784.36;109124;1255;62404;-80
2024/04/19 10:47:43;;;;;;;2.30;2.10;;;;;;;9.35;64.63;98790.45;109090;1255;59310;-81
2024/04/19 10:50:11;;;;;;;3.90;2.30;;;;;;;9.47;62.98;98785.80;108161;1257;75665;-81
2024/04/19 10:52:38;;;;;;;6.50;2.00;;;;;;;9.48;63.12;98793.95;108464;1256;71410;-79
2024/04/19 10:55:06;;;;;;;2.70;2.30;;;;;;;9.43;63.41;98797.70;108962;1255;73801;-81
2024/04/19 10:57:34;;;;;;;2.60;2.20;;;;;;;9.34;63.95;98821.61;108718;1256;61061;-78
2024/04/19 11:00:01;;;;;;;2.00;1.80;;;;;;;9.15;63.14;98818.52;107944;1261;61317;-79
2024/04/19 11:02:30;;;;;;;3.40;2.50;;;;;;;8.93;62.77;98819.05;108481;1259;73405;-78
2024/04/19 11:05:00;;;;;;;2.20;2.00;;;;;;;8.94;62.43;98825.28;108424;1255;70873;-79
2024/04/19 11:07:28;;;;;;;3.40;2.50;;;;;;;9.22;61.22;98833.95;107833;1254;73716;-76
2024/04/19 11:09:56;;;;;;;4.40;2.40;;;;;;;9.51;61.16;98826.68;108730;1261;60998;-80
2024/04/19 11:12:25;;;;;;;2.40;2.20;;;;;;;9.76;60.42;98827.77;109013;1255;59222;-79
2024/04/19 11:14:53;;;;;;;2.10;1.90;;;;;;;9.94;60.13;98828.41;108889;1254;74138;-79
2024/04/19 11:17:20;;;;;;;2.20;2.00;;;;;;;10.06;59.63;98829.07;108825;1255;70067;-80
2024/04/19 11:19:48;;;;;;;2.60;2.10;;;;;;;10.16;60.06;98833.91;108795;1256;73701;-79
2024/04/19 11:22:16;;;;;;;3.40;1.80;;;;;;;10.24;59.09;98828.08;108674;1256;61340;-81
2024/04/19 11:24:44;;;;;;;4.00;2.10;;;;;;;10.23;56.31;98849.46;108657;1254;61045;-79
2024/04/19 11:27:14;;;;;;;2.40;2.10;;;;;;;10.14;55.84;98843.66;108783;1257;75554;-80
2024/04/19 11:29:41;;;;;;;3.00;1.70;;;;;;;10.27;56.12;98854.40;108896;1257;71129;-77
2024/04/19 11:32:09;;;;;;;2.40;2.00;;;;;;;10.41;55.18;98847.12;108737;1254;72922;-79
2024/04/19 11:34:37;;;;;;;3.20;1.90;;;;;;;10.59;54.29;98847.49;108623;1257;61325;-83
2024/04/19 11:37:09;;;;;;;2.10;1.90;;;;;;;10.77;54.87;98844.14;108194;1255;61108;-79